createdAt,value
2019-05-10T00:00:19.338Z,100.00
2019-05-10T00:03:07.619Z,100.00
2019-05-10T00:05:55.717Z,100.00
2019-05-10T00:08:43.595Z,100.00
2019-05-10T00:11:28.125Z,100.00
2019-05-10T00:14:06.010Z,100.00
2019-05-10T00:16:36.270Z,100.00
2019-05-10T00:19:06.611Z,100.00
2019-05-10T00:21:36.923Z,100.00
2019-05-10T00:24:07.561Z,100.00
2019-05-10T00:26:38.384Z,100.00
2019-05-10T00:29:08.694Z,100.00
2019-05-10T00:31:39.089Z,100.00
2019-05-10T00:34:09.456Z,100.00
2019-05-10T00:36:40.213Z,100.00
2019-05-10T00:39:10.516Z,100.00
2019-05-10T00:41:40.826Z,100.00
2019-05-10T00:44:11.073Z,100.00
2019-05-10T00:46:41.640Z,100.00
2019-05-10T00:49:12.551Z,100.00
2019-05-10T00:51:42.882Z,100.00
2019-05-10T00:54:13.140Z,100.00
2019-05-10T00:56:43.436Z,100.00
2019-05-10T00:59:14.039Z,100.00
2019-05-10T01:01:44.380Z,100.00
2019-05-10T01:04:14.742Z,100.00
2019-05-10T01:06:45.036Z,100.00
2019-05-10T01:09:15.295Z,100.00
2019-05-10T01:11:45.580Z,100.00
2019-05-10T01:14:15.958Z,100.00
2019-05-10T01:16:46.237Z,100.00
2019-05-10T01:19:16.763Z,100.00
2019-05-10T01:21:47.096Z,100.00
2019-05-10T01:24:18.735Z,100.00
2019-05-10T01:26:48.957Z,100.00
2019-05-10T01:29:19.240Z,100.00
2019-05-10T01:31:50.523Z,100.00
2019-05-10T01:34:20.791Z,100.00
2019-05-10T01:36:51.066Z,100.00
2019-05-10T01:39:21.331Z,100.00
2019-05-10T01:41:51.630Z,100.00
2019-05-10T01:44:21.837Z,100.00
2019-05-10T01:46:52.135Z,100.00
2019-05-10T01:49:22.493Z,100.00
2019-05-10T01:51:52.716Z,100.00
2019-05-10T01:54:23.318Z,100.00
2019-05-10T01:56:53.674Z,100.00
2019-05-10T01:59:24.325Z,100.00
2019-05-10T02:01:54.538Z,100.00
2019-05-10T02:04:24.816Z,100.00
2019-05-10T02:06:55.389Z,100.00
2019-05-10T02:09:25.651Z,100.00
2019-05-10T02:11:56.268Z,100.00
2019-05-10T02:14:26.560Z,100.00
2019-05-10T02:19:36.839Z,100.00
2019-05-10T02:22:07.049Z,100.00
2019-05-10T02:24:37.277Z,100.00
2019-05-10T02:27:07.482Z,100.00
2019-05-10T02:29:37.696Z,100.00
2019-05-10T02:32:07.876Z,100.00
2019-05-10T02:34:38.171Z,100.00
2019-05-10T02:37:09.422Z,100.00
2019-05-10T02:39:39.931Z,100.00
2019-05-10T02:42:10.113Z,100.00
2019-05-10T02:44:40.321Z,100.00
2019-05-10T02:47:10.538Z,100.00
2019-05-10T02:49:40.739Z,100.00
2019-05-10T02:52:11.252Z,100.00
2019-05-10T02:54:41.654Z,100.00
2019-05-10T02:57:12.936Z,100.00
2019-05-10T02:59:45.250Z,100.00
2019-05-10T03:02:16.778Z,100.00
2019-05-10T03:04:48.121Z,100.00
2019-05-10T03:07:20.482Z,100.00
2019-05-10T03:09:50.976Z,100.00
2019-05-10T03:12:26.671Z,100.00
2019-05-10T03:14:58.384Z,100.00
2019-05-10T03:17:29.298Z,100.00
2019-05-10T03:20:01.675Z,100.00
2019-05-10T03:22:37.214Z,100.00
2019-05-10T03:25:07.659Z,100.00
2019-05-10T03:27:38.247Z,100.00
2019-05-10T03:30:11.117Z,100.00
2019-05-10T03:32:41.287Z,100.00
2019-05-10T03:35:11.486Z,100.00
2019-05-10T03:37:41.960Z,100.00
2019-05-10T03:40:12.166Z,100.00
2019-05-10T03:42:42.349Z,100.00
2019-05-10T03:45:12.637Z,100.00
2019-05-10T03:47:42.886Z,100.00
2019-05-10T03:50:13.521Z,100.00
2019-05-10T03:52:44.111Z,100.00
2019-05-10T03:55:14.683Z,100.00
2019-05-10T03:57:45.425Z,100.00
2019-05-10T04:00:15.728Z,100.00
2019-05-10T04:02:46.273Z,100.00
2019-05-10T04:05:16.582Z,100.00
2019-05-10T04:07:46.845Z,100.00
2019-05-10T04:10:20.722Z,100.00
2019-05-10T04:12:48.985Z,100.00
2019-05-10T04:15:19.196Z,100.00
2019-05-10T04:17:50.340Z,100.00
2019-05-10T04:20:22.742Z,100.00
2019-05-10T04:22:52.932Z,100.00
2019-05-10T04:25:23.491Z,100.00
2019-05-10T04:27:54.123Z,100.00
2019-05-10T04:30:24.758Z,100.00
2019-05-10T04:32:55.386Z,100.00
2019-05-10T04:35:25.952Z,100.00
2019-05-10T04:37:56.114Z,100.00
2019-05-10T04:40:26.799Z,100.00
2019-05-10T04:42:57.041Z,100.00
2019-05-10T04:45:27.289Z,100.00
2019-05-10T04:47:57.817Z,100.00
2019-05-10T04:50:28.184Z,100.00
2019-05-10T04:52:58.365Z,100.00
2019-05-10T04:55:28.634Z,100.00
2019-05-10T04:57:58.875Z,100.00
2019-05-10T05:00:29.195Z,100.00
2019-05-10T05:02:59.405Z,100.00
2019-05-10T05:05:29.961Z,100.00
2019-05-10T05:08:00.139Z,100.00
2019-05-10T05:10:30.402Z,100.00
2019-05-10T05:13:00.696Z,100.00
2019-05-10T05:15:30.974Z,100.00
2019-05-10T05:18:01.272Z,100.00
2019-05-10T05:20:31.481Z,100.00
2019-05-10T05:23:01.664Z,100.00
2019-05-10T05:25:35.360Z,100.00
2019-05-10T05:28:07.830Z,100.00
2019-05-10T05:30:38.911Z,100.00
2019-05-10T05:33:09.522Z,100.00
2019-05-10T05:35:39.745Z,100.00
2019-05-10T05:38:11.412Z,100.00
2019-05-10T05:40:41.631Z,100.00
2019-05-10T05:43:12.165Z,100.00
2019-05-10T05:45:42.687Z,100.00
2019-05-10T05:48:16.131Z,100.00
2019-05-10T05:50:44.799Z,100.00
2019-05-10T05:53:14.934Z,100.00
2019-05-10T05:55:45.186Z,100.00
2019-05-10T05:58:25.724Z,100.00
2019-05-10T06:00:47.963Z,100.00
2019-05-10T06:03:27.120Z,100.00
2019-05-10T06:05:50.776Z,100.00
2019-05-10T06:08:24.622Z,100.00
2019-05-10T06:10:57.872Z,100.00
2019-05-10T06:13:30.353Z,100.00
2019-05-10T06:16:00.071Z,100.00
2019-05-10T06:18:29.625Z,100.00
2019-05-10T06:20:59.849Z,100.00
2019-05-10T06:23:35.346Z,100.00
2019-05-10T06:26:02.323Z,100.00
2019-05-10T06:28:57.540Z,100.00
2019-05-10T06:31:04.435Z,100.00
2019-05-10T06:33:34.616Z,100.00
2019-05-10T06:36:04.849Z,100.00
2019-05-10T06:38:35.045Z,100.00
2019-05-10T06:41:09.994Z,100.00
2019-05-10T06:43:37.156Z,100.00
2019-05-10T06:46:07.349Z,100.00
2019-05-10T06:48:37.889Z,100.00
2019-05-10T06:51:09.757Z,100.00
2019-05-10T06:53:41.610Z,100.00
2019-05-10T06:56:12.230Z,100.00
2019-05-10T06:58:42.449Z,100.00
2019-05-10T07:01:12.632Z,100.00
2019-05-10T07:03:43.138Z,100.00
2019-05-10T07:06:13.310Z,100.00
2019-05-10T07:08:45.784Z,100.00
2019-05-10T07:11:15.427Z,100.00
2019-05-10T07:13:47.860Z,100.00
2019-05-10T07:16:24.276Z,100.00
2019-05-10T07:18:54.959Z,100.00
2019-05-10T07:21:22.369Z,100.00
2019-05-10T07:23:52.677Z,100.00
2019-05-10T07:26:26.357Z,100.00
2019-05-10T07:28:57.394Z,100.00
2019-05-10T07:31:26.683Z,100.00
2019-05-10T07:33:56.981Z,100.00
2019-05-10T07:36:30.724Z,100.00
2019-05-10T07:39:02.699Z,100.00
2019-05-10T07:41:33.470Z,100.00
2019-05-10T07:44:07.728Z,100.00
2019-05-10T07:46:39.900Z,100.00
2019-05-10T07:49:08.301Z,100.00
2019-05-10T07:51:38.862Z,100.00
2019-05-10T07:54:09.427Z,100.00
2019-05-10T07:56:45.559Z,100.00
2019-05-10T07:59:16.259Z,100.00
2019-05-10T08:01:48.870Z,100.00
2019-05-10T08:04:19.887Z,100.00
2019-05-10T08:06:51.894Z,99.50
2019-05-10T08:09:20.423Z,100.00
2019-05-10T08:11:54.275Z,100.00
2019-05-10T08:14:25.263Z,100.00
2019-05-10T08:16:58.546Z,100.00
2019-05-10T08:19:26.355Z,100.00
2019-05-10T08:22:01.896Z,100.00
2019-05-10T08:24:28.579Z,100.00
2019-05-10T08:27:09.889Z,100.00
2019-05-10T08:29:32.910Z,100.00
2019-05-10T08:32:03.053Z,100.00
2019-05-10T08:34:35.595Z,100.00
2019-05-10T08:37:05.682Z,93.29
2019-05-10T08:39:45.608Z,92.91
2019-05-10T08:42:28.498Z,90.46
2019-05-10T08:44:42.758Z,91.29
2019-05-10T08:47:22.398Z,93.39
2019-05-10T08:49:57.479Z,93.40
2019-05-10T08:52:19.283Z,94.66
2019-05-10T08:54:54.914Z,93.80
2019-05-10T09:00:12.957Z,95.15
2019-05-10T09:02:43.734Z,93.09
2019-05-10T09:05:14.572Z,86.65
2019-05-10T09:07:45.531Z,83.78
2019-05-10T09:10:16.317Z,84.45
2019-05-10T09:12:57.574Z,84.80
2019-05-10T09:15:22.297Z,82.92
2019-05-10T09:17:52.824Z,83.94
2019-05-10T09:20:26.512Z,85.72
2019-05-10T09:22:55.383Z,86.43
2019-05-10T09:25:29.551Z,89.83
2019-05-10T09:28:02.392Z,90.79
2019-05-10T09:30:35.476Z,87.58
2019-05-10T09:33:13.443Z,83.04
2019-05-10T09:35:44.138Z,82.79
2019-05-10T09:38:12.634Z,79.50
2019-05-10T09:40:51.320Z,73.58
2019-05-10T09:43:15.879Z,74.21
2019-05-10T09:45:46.716Z,69.61
2019-05-10T09:48:17.446Z,67.72
2019-05-10T09:50:49.215Z,64.32
2019-05-10T09:53:25.723Z,64.13
2019-05-10T09:56:00.151Z,64.65
2019-05-10T09:58:24.689Z,60.92
2019-05-10T10:01:11.101Z,66.62
2019-05-10T10:03:30.320Z,68.78
2019-05-10T10:06:07.430Z,68.81
2019-05-10T10:08:34.127Z,71.57
2019-05-10T10:11:12.641Z,73.98
2019-05-10T10:13:43.352Z,78.22
2019-05-10T10:16:14.572Z,75.87
2019-05-10T10:18:41.860Z,72.39
2019-05-10T10:21:13.336Z,69.45
2019-05-10T10:23:44.814Z,68.24
2019-05-10T10:26:20.806Z,67.23
2019-05-10T10:28:49.668Z,64.72
2019-05-10T10:31:29.055Z,66.59
2019-05-10T10:33:58.156Z,66.51
2019-05-10T10:36:27.437Z,63.63
2019-05-10T10:38:57.746Z,63.71
2019-05-10T10:41:31.722Z,62.92
2019-05-10T10:44:00.302Z,61.71
2019-05-10T10:46:34.405Z,58.66
2019-05-10T10:49:05.483Z,51.93
2019-05-10T10:51:37.983Z,47.58
2019-05-10T10:54:09.106Z,45.17
2019-05-10T10:56:39.622Z,45.15
2019-05-10T10:59:10.326Z,47.52
2019-05-10T11:01:49.895Z,50.24
2019-05-10T11:04:16.448Z,51.04
2019-05-10T11:06:47.113Z,54.91
2019-05-10T11:09:17.840Z,57.99
2019-05-10T11:11:48.288Z,59.22
2019-05-10T11:14:20.601Z,60.89
2019-05-10T11:16:55.426Z,61.61
2019-05-10T11:19:23.188Z,60.21
2019-05-10T11:21:53.671Z,60.96
2019-05-10T11:24:24.204Z,59.93
2019-05-10T11:26:55.001Z,58.50
2019-05-10T11:29:28.055Z,56.84
2019-05-10T11:32:12.164Z,55.18
2019-05-10T11:34:37.593Z,55.37
2019-05-10T11:37:04.251Z,55.77
2019-05-10T11:39:41.826Z,57.56
2019-05-10T11:42:07.547Z,57.57
2019-05-10T11:44:41.436Z,57.81
2019-05-10T11:47:23.408Z,60.40
2019-05-10T11:49:43.728Z,56.46
2019-05-10T11:52:14.701Z,55.04
2019-05-10T11:54:45.312Z,53.55
2019-05-10T11:57:15.829Z,49.74
2019-05-10T11:59:47.167Z,50.01
2019-05-10T12:02:35.356Z,49.61
2019-05-10T12:04:52.751Z,51.89
2019-05-10T12:07:24.566Z,55.03
2019-05-10T12:10:03.437Z,58.95
2019-05-10T12:12:45.262Z,60.96
2019-05-10T12:15:04.071Z,61.51
2019-05-10T12:17:33.194Z,59.34
2019-05-10T12:20:05.151Z,55.90
2019-05-10T12:22:46.379Z,55.21
2019-05-10T12:26:05.804Z,46.17
2019-05-10T12:27:47.309Z,47.58
2019-05-10T12:30:16.106Z,49.67
2019-05-10T12:32:56.116Z,49.50
2019-05-10T12:35:21.283Z,49.73
2019-05-10T12:37:53.994Z,45.66
2019-05-10T12:40:24.402Z,43.68
2019-05-10T12:42:54.936Z,43.49
2019-05-10T12:45:25.140Z,45.01
2019-05-10T12:47:55.423Z,46.28
2019-05-10T12:50:25.733Z,46.74
2019-05-10T12:53:03.327Z,49.82
2019-05-10T12:55:29.412Z,52.11
2019-05-10T12:57:59.632Z,53.10
2019-05-10T13:00:31.019Z,54.84
2019-05-10T13:03:12.154Z,55.29
2019-05-10T13:05:34.244Z,56.32
2019-05-10T13:08:04.579Z,59.91
2019-05-10T13:10:37.228Z,60.05
2019-05-10T13:13:06.766Z,61.57
2019-05-10T13:15:37.053Z,61.77
2019-05-10T13:18:07.302Z,62.32
2019-05-10T13:20:38.793Z,59.14
2019-05-10T13:23:09.858Z,62.28
2019-05-10T13:25:41.052Z,58.74
2019-05-10T13:28:11.934Z,49.91
2019-05-10T13:30:42.653Z,46.94
2019-05-10T13:33:27.899Z,37.95
2019-05-10T13:35:44.781Z,40.20
2019-05-10T13:38:15.129Z,44.25
2019-05-10T13:40:47.743Z,50.20
2019-05-10T13:43:26.073Z,56.37
2019-05-10T13:45:50.142Z,61.84
2019-05-10T13:48:20.335Z,62.57
2019-05-10T13:50:50.542Z,64.38
2019-05-10T13:53:23.169Z,64.24
2019-05-10T13:55:52.776Z,65.12
2019-05-10T13:58:22.972Z,68.10
2019-05-10T14:00:53.254Z,70.61
2019-05-10T14:03:23.465Z,71.28
2019-05-10T14:05:53.964Z,73.19
2019-05-10T14:08:25.179Z,71.52
2019-05-10T14:11:01.410Z,65.42
2019-05-10T14:13:28.669Z,53.62
2019-05-10T14:15:58.893Z,59.18
2019-05-10T14:18:29.234Z,65.71
2019-05-10T14:20:59.765Z,50.51
2019-05-10T14:23:35.112Z,51.59
2019-05-10T14:26:02.820Z,49.74
2019-05-10T14:28:33.028Z,41.52
2019-05-10T14:31:03.209Z,35.09
2019-05-10T14:33:34.482Z,38.50
2019-05-10T14:36:04.664Z,45.51
2019-05-10T14:38:34.882Z,48.88
2019-05-10T14:41:10.969Z,55.83
2019-05-10T14:43:36.964Z,60.41
2019-05-10T14:46:13.591Z,59.78
2019-05-10T14:48:39.850Z,59.31
2019-05-10T14:51:11.663Z,59.07
2019-05-10T14:53:42.275Z,59.07
2019-05-10T14:56:14.053Z,60.67
2019-05-10T14:58:44.358Z,67.49
2019-05-10T15:01:14.962Z,66.08
2019-05-10T15:03:47.247Z,64.17
2019-05-10T15:06:17.470Z,60.99
2019-05-10T15:08:47.692Z,62.37
2019-05-10T15:11:17.954Z,63.24
2019-05-10T15:13:48.172Z,62.98
2019-05-10T15:16:26.518Z,69.06
2019-05-10T15:18:50.536Z,71.29
2019-05-10T15:21:20.761Z,70.78
2019-05-10T15:23:55.227Z,70.49
2019-05-10T15:26:22.965Z,67.69
2019-05-10T15:28:53.149Z,68.71
2019-05-10T15:31:23.805Z,69.92
2019-05-10T15:33:55.240Z,72.51
2019-05-10T15:36:29.582Z,75.99
2019-05-10T15:38:57.439Z,78.46
2019-05-10T15:41:27.799Z,78.49
2019-05-10T15:43:57.983Z,73.95
2019-05-10T15:46:36.521Z,54.79
2019-05-10T15:49:00.311Z,38.96
2019-05-10T15:51:36.236Z,34.29
2019-05-10T15:54:04.948Z,33.39
2019-05-10T15:56:35.716Z,31.94
2019-05-10T15:59:06.874Z,29.77
2019-05-10T16:01:37.709Z,31.66
2019-05-10T16:04:08.351Z,29.09
2019-05-10T16:06:39.439Z,30.79
2019-05-10T16:09:17.411Z,33.54
2019-05-10T16:11:42.486Z,30.07
2019-05-10T16:14:12.677Z,33.82
2019-05-10T16:16:42.911Z,32.82
2019-05-10T16:19:18.357Z,35.01
2019-05-10T16:21:46.685Z,30.18
2019-05-10T16:24:25.180Z,28.61
2019-05-10T16:26:49.263Z,28.21
2019-05-10T16:29:20.212Z,28.65
2019-05-10T16:31:50.729Z,28.74
2019-05-10T16:34:26.421Z,28.42
2019-05-10T16:36:52.903Z,27.76
2019-05-10T16:39:23.097Z,28.20
2019-05-10T16:41:53.311Z,33.00
2019-05-10T16:44:23.543Z,38.92
2019-05-10T16:46:53.828Z,42.69
2019-05-10T16:49:24.009Z,46.57
2019-05-10T16:51:54.376Z,45.84
2019-05-10T16:54:27.236Z,49.69
2019-05-10T16:57:01.330Z,50.85
2019-05-10T16:59:31.217Z,58.95
2019-05-10T17:02:04.569Z,57.11
2019-05-10T17:04:52.880Z,66.03
2019-05-10T17:07:23.190Z,65.43
2019-05-10T17:09:54.750Z,66.74
2019-05-10T17:12:27.724Z,69.77
2019-05-10T17:15:02.714Z,68.97
2019-05-10T17:17:31.282Z,73.03
2019-05-10T17:20:07.535Z,74.39
2019-05-10T17:22:34.015Z,77.29
2019-05-10T17:25:05.385Z,76.18
2019-05-10T17:27:35.802Z,83.43
2019-05-10T17:30:06.451Z,81.46
2019-05-10T17:32:36.654Z,78.48
2019-05-10T17:35:07.325Z,79.42
2019-05-10T17:37:37.695Z,77.82
2019-05-10T17:40:12.069Z,76.77
2019-05-10T17:42:43.106Z,77.85
2019-05-10T17:45:13.771Z,78.25
2019-05-10T17:47:44.423Z,80.60
2019-05-10T17:50:14.961Z,82.26
2019-05-10T17:52:45.253Z,84.68
2019-05-10T17:55:16.837Z,89.09
2019-05-10T17:57:48.598Z,91.96
2019-05-10T18:00:19.341Z,93.55
2019-05-10T18:02:49.565Z,96.80
2019-05-10T18:05:20.153Z,95.32
2019-05-10T18:07:51.831Z,96.08
2019-05-10T18:10:22.379Z,97.83
2019-05-10T18:12:57.422Z,99.00
2019-05-10T18:15:27.783Z,100.00
2019-05-10T18:18:02.783Z,100.00
2019-05-10T18:20:40.964Z,100.00
2019-05-10T18:23:03.102Z,100.00
2019-05-10T18:25:34.391Z,100.00
2019-05-10T18:28:04.811Z,100.00
2019-05-10T18:30:35.017Z,100.00
2019-05-10T18:33:06.843Z,100.00
2019-05-10T18:35:37.197Z,100.00
2019-05-10T18:38:07.407Z,100.00
2019-05-10T18:40:38.220Z,100.00
2019-05-10T18:43:08.714Z,100.00
2019-05-10T18:45:38.939Z,100.00
2019-05-10T18:48:09.662Z,100.00
2019-05-10T18:50:45.225Z,100.00
2019-05-10T18:53:11.764Z,100.00
2019-05-10T18:55:43.748Z,100.00
2019-05-10T18:58:14.010Z,100.00
2019-05-10T19:00:44.650Z,100.00
2019-05-10T19:03:15.721Z,100.00
2019-05-10T19:05:46.273Z,100.00
2019-05-10T19:08:16.801Z,100.00
2019-05-10T19:10:47.290Z,100.00
2019-05-10T19:13:18.266Z,100.00
2019-05-10T19:15:52.895Z,100.00
2019-05-10T19:18:23.377Z,100.00
2019-05-10T19:20:54.841Z,100.00
2019-05-10T19:23:24.942Z,100.00
2019-05-10T19:25:55.537Z,100.00
2019-05-10T19:28:28.398Z,100.00
2019-05-10T19:30:58.576Z,100.00
2019-05-10T19:33:36.362Z,100.00
2019-05-10T19:36:02.426Z,100.00
2019-05-10T19:38:32.656Z,100.00
2019-05-10T19:41:02.879Z,100.00
2019-05-10T19:43:33.537Z,100.00
2019-05-10T19:46:03.782Z,100.00
2019-05-10T19:48:36.906Z,100.00
2019-05-10T19:51:09.451Z,100.00
2019-05-10T19:53:42.406Z,100.00
2019-05-10T19:56:11.957Z,100.00
2019-05-10T19:58:43.002Z,100.00
2019-05-10T20:01:13.917Z,100.00
2019-05-10T20:03:44.153Z,100.00
2019-05-10T20:06:14.343Z,100.00
2019-05-10T20:08:44.887Z,100.00
2019-05-10T20:11:16.196Z,100.00
2019-05-10T20:13:46.449Z,100.00
2019-05-10T20:16:16.676Z,100.00
2019-05-10T20:18:47.255Z,100.00
2019-05-10T20:21:17.487Z,100.00
2019-05-10T20:23:48.028Z,100.00
2019-05-10T20:26:18.239Z,100.00
2019-05-10T20:28:48.459Z,100.00
2019-05-10T20:31:19.033Z,100.00
2019-05-10T20:33:49.566Z,100.00
2019-05-10T20:36:19.790Z,100.00
2019-05-10T20:38:50.592Z,100.00
2019-05-10T20:41:20.957Z,100.00
2019-05-10T20:43:51.492Z,100.00
2019-05-10T20:46:22.706Z,100.00
2019-05-10T20:48:52.871Z,100.00
2019-05-10T20:51:23.138Z,100.00
2019-05-10T20:53:53.662Z,100.00
2019-05-10T20:56:24.345Z,100.00
2019-05-10T20:58:54.630Z,100.00
2019-05-10T21:01:24.922Z,100.00
2019-05-10T21:03:55.404Z,100.00
2019-05-10T21:06:27.738Z,100.00
2019-05-10T21:08:58.404Z,100.00
2019-05-10T21:11:30.193Z,100.00
2019-05-10T21:14:00.433Z,100.00
2019-05-10T21:16:30.714Z,100.00
2019-05-10T21:19:01.242Z,100.00
2019-05-10T21:21:31.449Z,100.00
2019-05-10T21:24:01.987Z,100.00
2019-05-10T21:26:32.250Z,100.00
2019-05-10T21:29:02.456Z,100.00
2019-05-10T21:31:33.870Z,100.00
2019-05-10T21:34:09.929Z,100.00
2019-05-10T21:36:36.268Z,100.00
2019-05-10T21:39:08.135Z,100.00
2019-05-10T21:41:38.359Z,100.00
2019-05-10T21:44:09.006Z,100.00
2019-05-10T21:46:39.926Z,100.00
2019-05-10T21:49:10.640Z,100.00
2019-05-10T21:51:40.886Z,100.00
2019-05-10T21:54:12.240Z,100.00
2019-05-10T21:56:42.897Z,100.00
2019-05-10T21:59:13.500Z,100.00
2019-05-10T22:01:44.127Z,100.00
2019-05-10T22:04:14.369Z,100.00
2019-05-10T22:06:44.767Z,100.00
2019-05-10T22:09:15.000Z,100.00
2019-05-10T22:11:45.559Z,100.00
2019-05-10T22:14:15.775Z,100.00
2019-05-10T22:16:46.019Z,100.00
2019-05-10T22:19:16.306Z,100.00
2019-05-10T22:21:46.879Z,100.00
2019-05-10T22:24:17.502Z,100.00
2019-05-10T22:26:47.867Z,100.00
2019-05-10T22:29:18.157Z,100.00
2019-05-10T22:31:48.818Z,100.00
2019-05-10T22:34:19.044Z,100.00
2019-05-10T22:36:49.344Z,100.00
2019-05-10T22:39:20.269Z,100.00
2019-05-10T22:41:52.964Z,100.00
2019-05-10T22:44:22.503Z,100.00
2019-05-10T22:46:52.768Z,100.00
2019-05-10T22:49:23.123Z,100.00
2019-05-10T22:51:53.435Z,100.00
2019-05-10T22:54:25.032Z,100.00
2019-05-10T22:56:55.319Z,100.00
2019-05-10T22:59:25.599Z,100.00
2019-05-10T23:01:55.863Z,100.00
2019-05-10T23:04:26.223Z,100.00
2019-05-10T23:06:56.541Z,100.00
2019-05-10T23:09:26.767Z,100.00
2019-05-10T23:11:57.743Z,100.00
2019-05-10T23:14:28.147Z,100.00
2019-05-10T23:16:58.401Z,100.00
2019-05-10T23:19:28.798Z,100.00
2019-05-10T23:21:59.122Z,100.00
2019-05-10T23:24:41.989Z,100.00
2019-05-10T23:27:12.236Z,100.00
2019-05-10T23:29:42.561Z,100.00
2019-05-10T23:32:12.839Z,100.00
2019-05-10T23:34:43.476Z,100.00
2019-05-10T23:37:15.200Z,100.00
2019-05-10T23:39:45.854Z,100.00
2019-05-10T23:42:16.535Z,100.00
2019-05-10T23:44:47.332Z,100.00
2019-05-10T23:47:17.670Z,100.00
2019-05-10T23:49:47.912Z,100.00
2019-05-10T23:52:18.187Z,100.00
2019-05-10T23:54:48.506Z,100.00
2019-05-10T23:57:19.154Z,100.00
2019-05-10T23:59:49.578Z,100.00
